sensor_id;sensor_type;location;lat;lon;timestamp;P1;durP1;ratioP1;P2;durP2;ratioP2
35691;SDS011;26978;44.830;-0.674;2022-07-12T00:01:18;3.65;;;0.77;;
35691;SDS011;26978;44.830;-0.674;2022-07-12T00:03:44;1.17;;;0.70;;
35691;SDS011;26978;44.830;-0.674;2022-07-12T00:06:10;1.58;;;0.68;;
35691;SDS011;26978;44.830;-0.674;2022-07-12T00:08:35;1.88;;;0.60;;
35691;SDS011;26978;44.830;-0.674;2022-07-12T00:11:02;2.15;;;0.63;;
35691;SDS011;26978;44.830;-0.674;2022-07-12T00:13:29;3.45;;;0.68;;
35691;SDS011;26978;44.830;-0.674;2022-07-12T00:15:55;2.72;;;0.60;;
35691;SDS011;26978;44.830;-0.674;2022-07-12T00:18:21;1.13;;;0.57;;
35691;SDS011;26978;44.830;-0.674;2022-07-12T00:20:48;2.67;;;0.80;;
35691;SDS011;26978;44.830;-0.674;2022-07-12T00:23:13;5.38;;;0.80;;
35691;SDS011;26978;44.830;-0.674;2022-07-12T00:25:39;1.13;;;0.60;;
35691;SDS011;26978;44.830;-0.674;2022-07-12T00:28:05;2.28;;;0.80;;
35691;SDS011;26978;44.830;-0.674;2022-07-12T00:30:31;1.75;;;0.65;;
35691;SDS011;26978;44.830;-0.674;2022-07-12T00:32:57;1.05;;;0.85;;
35691;SDS011;26978;44.830;-0.674;2022-07-12T00:35:23;2.78;;;0.80;;
35691;SDS011;26978;44.830;-0.674;2022-07-12T00:37:49;4.28;;;0.90;;
35691;SDS011;26978;44.830;-0.674;2022-07-12T00:40:15;1.95;;;0.70;;
35691;SDS011;26978;44.830;-0.674;2022-07-12T00:42:41;2.72;;;0.90;;
35691;SDS011;26978;44.830;-0.674;2022-07-12T00:45:07;2.03;;;0.90;;
35691;SDS011;26978;44.830;-0.674;2022-07-12T00:47:37;4.45;;;1.27;;
35691;SDS011;26978;44.830;-0.674;2022-07-12T00:50:19;2.22;;;0.90;;
35691;SDS011;26978;44.830;-0.674;2022-07-12T00:52:47;5.28;;;1.00;;
35691;SDS011;26978;44.830;-0.674;2022-07-12T00:55:14;2.22;;;0.93;;
35691;SDS011;26978;44.830;-0.674;2022-07-12T00:57:42;1.63;;;0.82;;
35691;SDS011;26978;44.830;-0.674;2022-07-12T01:00:09;5.47;;;1.23;;
35691;SDS011;26978;44.830;-0.674;2022-07-12T01:02:37;4.45;;;1.00;;
35691;SDS011;26978;44.830;-0.674;2022-07-12T01:05:04;4.45;;;1.20;;
35691;SDS011;26978;44.830;-0.674;2022-07-12T01:07:31;2.05;;;0.68;;
35691;SDS011;26978;44.830;-0.674;2022-07-12T01:09:58;0.93;;;0.70;;
35691;SDS011;26978;44.830;-0.674;2022-07-12T01:12:24;2.80;;;0.80;;
35691;SDS011;26978;44.830;-0.674;2022-07-12T01:14:50;1.40;;;0.95;;
35691;SDS011;26978;44.830;-0.674;2022-07-12T01:17:18;1.60;;;1.00;;
35691;SDS011;26978;44.830;-0.674;2022-07-12T01:19:46;1.30;;;0.68;;
35691;SDS011;26978;44.830;-0.674;2022-07-12T01:22:14;2.20;;;0.88;;
35691;SDS011;26978;44.830;-0.674;2022-07-12T01:24:42;1.10;;;0.80;;
35691;SDS011;26978;44.830;-0.674;2022-07-12T01:27:08;1.23;;;0.63;;
35691;SDS011;26978;44.830;-0.674;2022-07-12T01:29:34;0.52;;;0.52;;
35691;SDS011;26978;44.830;-0.674;2022-07-12T01:32:01;2.65;;;0.80;;
35691;SDS011;26978;44.830;-0.674;2022-07-12T01:34:57;1.00;;;0.80;;
35691;SDS011;26978;44.830;-0.674;2022-07-12T01:37:28;1.83;;;0.90;;
35691;SDS011;26978;44.830;-0.674;2022-07-12T01:39:58;2.08;;;0.90;;
35691;SDS011;26978;44.830;-0.674;2022-07-12T01:42:24;3.13;;;0.85;;
35691;SDS011;26978;44.830;-0.674;2022-07-12T01:44:52;1.15;;;0.70;;
35691;SDS011;26978;44.830;-0.674;2022-07-12T01:47:23;2.55;;;0.73;;
35691;SDS011;26978;44.830;-0.674;2022-07-12T01:49:51;2.85;;;0.70;;
35691;SDS011;26978;44.830;-0.674;2022-07-12T01:52:17;1.02;;;0.70;;
35691;SDS011;26978;44.830;-0.674;2022-07-12T01:54:44;0.65;;;0.65;;
35691;SDS011;26978;44.830;-0.674;2022-07-12T01:57:10;1.23;;;0.75;;
35691;SDS011;26978;44.830;-0.674;2022-07-12T01:59:36;1.70;;;0.65;;
35691;SDS011;26978;44.830;-0.674;2022-07-12T02:02:03;2.95;;;0.70;;
35691;SDS011;26978;44.830;-0.674;2022-07-12T02:04:29;0.93;;;0.70;;
35691;SDS011;26978;44.830;-0.674;2022-07-12T02:06:55;3.15;;;0.65;;
35691;SDS011;26978;44.830;-0.674;2022-07-12T02:09:21;2.25;;;0.80;;
35691;SDS011;26978;44.830;-0.674;2022-07-12T02:11:48;8.48;;;1.42;;
35691;SDS011;26978;44.830;-0.674;2022-07-12T02:14:15;4.75;;;1.17;;
35691;SDS011;26978;44.830;-0.674;2022-07-12T02:16:41;3.65;;;0.75;;
35691;SDS011;26978;44.830;-0.674;2022-07-12T02:19:08;2.47;;;0.80;;
35691;SDS011;26978;44.830;-0.674;2022-07-12T02:21:35;1.13;;;0.93;;
35691;SDS011;26978;44.830;-0.674;2022-07-12T02:24:01;3.35;;;0.60;;
35691;SDS011;26978;44.830;-0.674;2022-07-12T02:26:27;0.70;;;0.63;;
35691;SDS011;26978;44.830;-0.674;2022-07-12T02:28:53;2.63;;;0.73;;
35691;SDS011;26978;44.830;-0.674;2022-07-12T02:31:19;1.92;;;0.70;;
35691;SDS011;26978;44.830;-0.674;2022-07-12T02:33:45;1.20;;;0.65;;
35691;SDS011;26978;44.830;-0.674;2022-07-12T02:36:10;3.92;;;0.73;;
35691;SDS011;26978;44.830;-0.674;2022-07-12T02:38:36;2.35;;;0.90;;
35691;SDS011;26978;44.830;-0.674;2022-07-12T02:41:02;2.33;;;0.90;;
35691;SDS011;26978;44.830;-0.674;2022-07-12T02:43:29;2.10;;;0.95;;
35691;SDS011;26978;44.830;-0.674;2022-07-12T02:46:02;1.55;;;0.70;;
35691;SDS011;26978;44.830;-0.674;2022-07-12T02:48:33;1.73;;;0.82;;
35691;SDS011;26978;44.830;-0.674;2022-07-12T02:50:59;1.42;;;0.70;;
35691;SDS011;26978;44.830;-0.674;2022-07-12T02:53:25;2.70;;;0.95;;
35691;SDS011;26978;44.830;-0.674;2022-07-12T02:55:51;4.88;;;0.90;;
35691;SDS011;26978;44.830;-0.674;2022-07-12T02:58:17;1.85;;;0.65;;
35691;SDS011;26978;44.830;-0.674;2022-07-12T03:00:42;1.33;;;0.60;;
35691;SDS011;26978;44.830;-0.674;2022-07-12T03:03:10;1.15;;;0.90;;
35691;SDS011;26978;44.830;-0.674;2022-07-12T03:05:36;1.92;;;0.77;;
35691;SDS011;26978;44.830;-0.674;2022-07-12T03:08:05;1.55;;;0.88;;
35691;SDS011;26978;44.830;-0.674;2022-07-12T03:10:33;2.90;;;0.75;;
35691;SDS011;26978;44.830;-0.674;2022-07-12T03:12:59;3.50;;;1.00;;
35691;SDS011;26978;44.830;-0.674;2022-07-12T03:15:25;2.25;;;0.95;;
35691;SDS011;26978;44.830;-0.674;2022-07-12T03:17:52;3.80;;;1.05;;
35691;SDS011;26978;44.830;-0.674;2022-07-12T03:20:19;2.95;;;0.98;;
35691;SDS011;26978;44.830;-0.674;2022-07-12T03:22:44;1.45;;;1.10;;
35691;SDS011;26978;44.830;-0.674;2022-07-12T03:25:15;2.30;;;0.90;;
35691;SDS011;26978;44.830;-0.674;2022-07-12T03:27:41;3.03;;;1.00;;
35691;SDS011;26978;44.830;-0.674;2022-07-12T03:30:07;2.92;;;1.00;;
35691;SDS011;26978;44.830;-0.674;2022-07-12T03:32:33;4.53;;;1.20;;
35691;SDS011;26978;44.830;-0.674;2022-07-12T03:34:59;7.38;;;1.30;;
35691;SDS011;26978;44.830;-0.674;2022-07-12T03:37:26;1.90;;;1.00;;
35691;SDS011;26978;44.830;-0.674;2022-07-12T03:39:52;4.97;;;1.15;;
35691;SDS011;26978;44.830;-0.674;2022-07-12T03:42:18;5.60;;;0.85;;
35691;SDS011;26978;44.830;-0.674;2022-07-12T03:44:44;1.00;;;0.90;;
35691;SDS011;26978;44.830;-0.674;2022-07-12T03:47:10;2.22;;;0.90;;
35691;SDS011;26978;44.830;-0.674;2022-07-12T03:49:36;1.73;;;0.95;;
35691;SDS011;26978;44.830;-0.674;2022-07-12T03:52:02;3.72;;;1.00;;
35691;SDS011;26978;44.830;-0.674;2022-07-12T03:54:28;1.65;;;0.90;;
35691;SDS011;26978;44.830;-0.674;2022-07-12T03:56:54;1.95;;;0.90;;
35691;SDS011;26978;44.830;-0.674;2022-07-12T03:59:38;3.30;;;0.90;;
35691;SDS011;26978;44.830;-0.674;2022-07-12T04:02:04;3.53;;;1.23;;
35691;SDS011;26978;44.830;-0.674;2022-07-12T04:04:30;6.70;;;1.30;;
35691;SDS011;26978;44.830;-0.674;2022-07-12T04:06:55;4.97;;;1.08;;
35691;SDS011;26978;44.830;-0.674;2022-07-12T04:09:21;1.85;;;1.13;;
35691;SDS011;26978;44.830;-0.674;2022-07-12T04:11:47;1.25;;;0.90;;
35691;SDS011;26978;44.830;-0.674;2022-07-12T04:14:12;3.45;;;1.00;;
35691;SDS011;26978;44.830;-0.674;2022-07-12T04:16:38;2.08;;;1.10;;
35691;SDS011;26978;44.830;-0.674;2022-07-12T04:19:04;1.10;;;1.00;;
35691;SDS011;26978;44.830;-0.674;2022-07-12T04:21:30;4.60;;;1.33;;
35691;SDS011;26978;44.830;-0.674;2022-07-12T04:23:56;3.63;;;1.13;;
35691;SDS011;26978;44.830;-0.674;2022-07-12T04:26:22;1.67;;;1.30;;
35691;SDS011;26978;44.830;-0.674;2022-07-12T04:28:48;3.63;;;1.20;;
35691;SDS011;26978;44.830;-0.674;2022-07-12T04:31:13;4.50;;;1.23;;
35691;SDS011;26978;44.830;-0.674;2022-07-12T04:33:39;3.80;;;1.30;;
35691;SDS011;26978;44.830;-0.674;2022-07-12T04:36:05;2.53;;;1.42;;
35691;SDS011;26978;44.830;-0.674;2022-07-12T04:38:31;10.32;;;1.70;;
35691;SDS011;26978;44.830;-0.674;2022-07-12T04:40:57;5.97;;;1.38;;
35691;SDS011;26978;44.830;-0.674;2022-07-12T04:43:23;5.25;;;1.30;;
35691;SDS011;26978;44.830;-0.674;2022-07-12T04:45:49;4.00;;;1.30;;
35691;SDS011;26978;44.830;-0.674;2022-07-12T04:48:15;5.88;;;1.40;;
35691;SDS011;26978;44.830;-0.674;2022-07-12T04:50:41;4.28;;;1.48;;
35691;SDS011;26978;44.830;-0.674;2022-07-12T04:53:07;2.30;;;1.50;;
35691;SDS011;26978;44.830;-0.674;2022-07-12T04:55:33;4.03;;;1.25;;
35691;SDS011;26978;44.830;-0.674;2022-07-12T04:57:59;5.45;;;1.52;;
35691;SDS011;26978;44.830;-0.674;2022-07-12T05:00:25;4.88;;;1.55;;
35691;SDS011;26978;44.830;-0.674;2022-07-12T05:02:51;3.15;;;1.30;;
35691;SDS011;26978;44.830;-0.674;2022-07-12T05:05:17;3.35;;;1.42;;
35691;SDS011;26978;44.830;-0.674;2022-07-12T05:07:42;8.77;;;1.40;;
35691;SDS011;26978;44.830;-0.674;2022-07-12T05:10:08;4.25;;;1.58;;
35691;SDS011;26978;44.830;-0.674;2022-07-12T05:12:34;5.60;;;1.88;;
35691;SDS011;26978;44.830;-0.674;2022-07-12T05:15:00;4.30;;;1.52;;
35691;SDS011;26978;44.830;-0.674;2022-07-12T05:17:26;2.05;;;1.38;;
35691;SDS011;26978;44.830;-0.674;2022-07-12T05:19:52;5.80;;;1.60;;
35691;SDS011;26978;44.830;-0.674;2022-07-12T05:22:18;2.58;;;1.25;;
35691;SDS011;26978;44.830;-0.674;2022-07-12T05:24:43;8.50;;;1.98;;
35691;SDS011;26978;44.830;-0.674;2022-07-12T05:27:09;3.33;;;1.35;;
35691;SDS011;26978;44.830;-0.674;2022-07-12T05:29:35;3.30;;;1.33;;
35691;SDS011;26978;44.830;-0.674;2022-07-12T05:32:00;3.92;;;1.23;;
35691;SDS011;26978;44.830;-0.674;2022-07-12T05:34:27;4.22;;;1.48;;
35691;SDS011;26978;44.830;-0.674;2022-07-12T05:36:53;5.88;;;1.27;;
35691;SDS011;26978;44.830;-0.674;2022-07-12T05:39:19;4.55;;;1.40;;
35691;SDS011;26978;44.830;-0.674;2022-07-12T05:41:44;8.05;;;1.38;;
35691;SDS011;26978;44.830;-0.674;2022-07-12T05:44:11;9.80;;;1.10;;
35691;SDS011;26978;44.830;-0.674;2022-07-12T05:46:37;3.13;;;0.93;;
35691;SDS011;26978;44.830;-0.674;2022-07-12T05:49:04;4.32;;;1.20;;
35691;SDS011;26978;44.830;-0.674;2022-07-12T05:51:30;11.68;;;1.20;;
35691;SDS011;26978;44.830;-0.674;2022-07-12T05:54:14;8.75;;;1.40;;
35691;SDS011;26978;44.830;-0.674;2022-07-12T05:56:39;5.15;;;1.10;;
35691;SDS011;26978;44.830;-0.674;2022-07-12T05:59:05;8.10;;;1.10;;
35691;SDS011;26978;44.830;-0.674;2022-07-12T06:01:31;12.13;;;1.30;;
35691;SDS011;26978;44.830;-0.674;2022-07-12T06:03:56;2.90;;;1.10;;
35691;SDS011;26978;44.830;-0.674;2022-07-12T06:06:22;2.33;;;1.05;;
35691;SDS011;26978;44.830;-0.674;2022-07-12T06:08:47;5.63;;;1.25;;
35691;SDS011;26978;44.830;-0.674;2022-07-12T06:11:13;4.43;;;1.33;;
35691;SDS011;26978;44.830;-0.674;2022-07-12T06:13:39;3.10;;;1.23;;
35691;SDS011;26978;44.830;-0.674;2022-07-12T06:16:05;10.65;;;1.42;;
35691;SDS011;26978;44.830;-0.674;2022-07-12T06:18:31;6.15;;;1.13;;
35691;SDS011;26978;44.830;-0.674;2022-07-12T06:20:59;11.40;;;2.45;;
35691;SDS011;26978;44.830;-0.674;2022-07-12T06:23:25;4.22;;;1.00;;
35691;SDS011;26978;44.830;-0.674;2022-07-12T06:25:50;8.05;;;1.15;;
35691;SDS011;26978;44.830;-0.674;2022-07-12T06:28:16;4.50;;;1.10;;
35691;SDS011;26978;44.830;-0.674;2022-07-12T06:30:42;9.35;;;1.08;;
35691;SDS011;26978;44.830;-0.674;2022-07-12T06:33:08;5.68;;;1.10;;
35691;SDS011;26978;44.830;-0.674;2022-07-12T06:35:33;4.18;;;1.23;;
35691;SDS011;26978;44.830;-0.674;2022-07-12T06:37:59;4.15;;;1.30;;
35691;SDS011;26978;44.830;-0.674;2022-07-12T06:40:25;8.48;;;1.58;;
35691;SDS011;26978;44.830;-0.674;2022-07-12T06:42:51;7.32;;;0.90;;
35691;SDS011;26978;44.830;-0.674;2022-07-12T06:45:16;5.82;;;2.95;;
35691;SDS011;26978;44.830;-0.674;2022-07-12T06:47:43;17.90;;;1.60;;
35691;SDS011;26978;44.830;-0.674;2022-07-12T06:50:09;14.40;;;3.88;;
35691;SDS011;26978;44.830;-0.674;2022-07-12T06:52:34;3.70;;;1.00;;
35691;SDS011;26978;44.830;-0.674;2022-07-12T06:55:00;7.65;;;1.20;;
35691;SDS011;26978;44.830;-0.674;2022-07-12T06:57:26;6.00;;;1.10;;
35691;SDS011;26978;44.830;-0.674;2022-07-12T06:59:52;2.08;;;0.80;;
35691;SDS011;26978;44.830;-0.674;2022-07-12T07:02:18;5.30;;;1.35;;
35691;SDS011;26978;44.830;-0.674;2022-07-12T07:04:43;3.95;;;0.77;;
35691;SDS011;26978;44.830;-0.674;2022-07-12T07:07:09;4.32;;;1.17;;
35691;SDS011;26978;44.830;-0.674;2022-07-12T07:09:35;8.75;;;1.45;;
35691;SDS011;26978;44.830;-0.674;2022-07-12T07:12:00;6.90;;;1.25;;
35691;SDS011;26978;44.830;-0.674;2022-07-12T07:14:27;7.80;;;1.38;;
35691;SDS011;26978;44.830;-0.674;2022-07-12T07:16:53;7.15;;;1.30;;
35691;SDS011;26978;44.830;-0.674;2022-07-12T07:19:19;12.32;;;1.77;;
35691;SDS011;26978;44.830;-0.674;2022-07-12T07:21:46;1.55;;;0.88;;
35691;SDS011;26978;44.830;-0.674;2022-07-12T07:24:11;3.28;;;0.90;;
35691;SDS011;26978;44.830;-0.674;2022-07-12T07:26:37;14.05;;;1.05;;
35691;SDS011;26978;44.830;-0.674;2022-07-12T07:29:03;2.53;;;1.00;;
35691;SDS011;26978;44.830;-0.674;2022-07-12T07:31:47;8.90;;;1.20;;
35691;SDS011;26978;44.830;-0.674;2022-07-12T07:34:12;8.38;;;1.20;;
35691;SDS011;26978;44.830;-0.674;2022-07-12T07:36:38;5.30;;;1.38;;
35691;SDS011;26978;44.830;-0.674;2022-07-12T07:39:04;11.30;;;1.58;;
35691;SDS011;26978;44.830;-0.674;2022-07-12T07:41:29;2.97;;;1.10;;
35691;SDS011;26978;44.830;-0.674;2022-07-12T07:43:55;8.65;;;1.27;;
35691;SDS011;26978;44.830;-0.674;2022-07-12T07:46:21;4.53;;;1.00;;
35691;SDS011;26978;44.830;-0.674;2022-07-12T07:48:47;5.60;;;0.88;;
35691;SDS011;26978;44.830;-0.674;2022-07-12T07:51:12;10.07;;;1.30;;
35691;SDS011;26978;44.830;-0.674;2022-07-12T07:53:38;7.03;;;1.10;;
35691;SDS011;26978;44.830;-0.674;2022-07-12T07:56:04;6.97;;;1.30;;
35691;SDS011;26978;44.830;-0.674;2022-07-12T07:58:30;5.13;;;1.35;;
35691;SDS011;26978;44.830;-0.674;2022-07-12T08:00:55;7.55;;;1.38;;
35691;SDS011;26978;44.830;-0.674;2022-07-12T08:03:21;6.05;;;1.10;;
35691;SDS011;26978;44.830;-0.674;2022-07-12T08:05:47;5.00;;;1.10;;
35691;SDS011;26978;44.830;-0.674;2022-07-12T08:08:13;1.80;;;1.02;;
35691;SDS011;26978;44.830;-0.674;2022-07-12T08:10:39;5.85;;;1.00;;
35691;SDS011;26978;44.830;-0.674;2022-07-12T08:13:05;14.65;;;1.08;;
35691;SDS011;26978;44.830;-0.674;2022-07-12T08:15:31;5.05;;;0.90;;
35691;SDS011;26978;44.830;-0.674;2022-07-12T08:17:57;5.82;;;1.40;;
35691;SDS011;26978;44.830;-0.674;2022-07-12T08:20:23;13.90;;;1.17;;
35691;SDS011;26978;44.830;-0.674;2022-07-12T08:22:49;3.67;;;0.90;;
35691;SDS011;26978;44.830;-0.674;2022-07-12T08:25:15;5.85;;;0.77;;
35691;SDS011;26978;44.830;-0.674;2022-07-12T08:27:41;4.53;;;1.15;;
35691;SDS011;26978;44.830;-0.674;2022-07-12T08:30:08;1.98;;;0.88;;
35691;SDS011;26978;44.830;-0.674;2022-07-12T08:32:34;6.05;;;1.05;;
35691;SDS011;26978;44.830;-0.674;2022-07-12T08:35:00;6.25;;;1.08;;
35691;SDS011;26978;44.830;-0.674;2022-07-12T08:37:26;6.10;;;1.30;;
35691;SDS011;26978;44.830;-0.674;2022-07-12T08:39:51;3.92;;;0.85;;
35691;SDS011;26978;44.830;-0.674;2022-07-12T08:42:17;13.32;;;1.00;;
35691;SDS011;26978;44.830;-0.674;2022-07-12T08:44:55;5.65;;;1.00;;
35691;SDS011;26978;44.830;-0.674;2022-07-12T08:47:22;6.63;;;0.82;;
35691;SDS011;26978;44.830;-0.674;2022-07-12T08:52:46;4.60;;;0.90;;
35691;SDS011;26978;44.830;-0.674;2022-07-12T08:57:56;5.72;;;0.90;;
35691;SDS011;26978;44.830;-0.674;2022-07-12T09:00:24;7.75;;;1.20;;
35691;SDS011;26978;44.830;-0.674;2022-07-12T09:02:52;13.23;;;1.27;;
35691;SDS011;26978;44.830;-0.674;2022-07-12T09:05:20;3.53;;;1.27;;
35691;SDS011;26978;44.830;-0.674;2022-07-12T09:07:47;5.53;;;1.17;;
35691;SDS011;26978;44.830;-0.674;2022-07-12T09:10:13;10.55;;;0.90;;
35691;SDS011;26978;44.830;-0.674;2022-07-12T09:12:40;5.15;;;0.80;;
35691;SDS011;26978;44.830;-0.674;2022-07-12T09:15:10;3.33;;;0.82;;
35691;SDS011;26978;44.830;-0.674;2022-07-12T09:17:53;6.57;;;1.08;;
35691;SDS011;26978;44.830;-0.674;2022-07-12T09:20:22;8.40;;;1.10;;
35691;SDS011;26978;44.830;-0.674;2022-07-12T09:22:53;5.22;;;1.00;;
35691;SDS011;26978;44.830;-0.674;2022-07-12T09:25:21;5.82;;;1.50;;
35691;SDS011;26978;44.830;-0.674;2022-07-12T09:27:57;6.20;;;1.35;;
35691;SDS011;26978;44.830;-0.674;2022-07-12T09:30:27;3.55;;;0.95;;
35691;SDS011;26978;44.830;-0.674;2022-07-12T09:33:00;14.70;;;1.67;;
35691;SDS011;26978;44.830;-0.674;2022-07-12T09:38:38;9.50;;;1.60;;
35691;SDS011;26978;44.830;-0.674;2022-07-12T09:41:10;5.32;;;2.20;;
35691;SDS011;26978;44.830;-0.674;2022-07-12T09:43:42;4.13;;;1.42;;
35691;SDS011;26978;44.830;-0.674;2022-07-12T09:46:08;4.20;;;1.35;;
35691;SDS011;26978;44.830;-0.674;2022-07-12T09:48:35;10.60;;;1.40;;
35691;SDS011;26978;44.830;-0.674;2022-07-12T09:51:02;5.10;;;0.98;;
35691;SDS011;26978;44.830;-0.674;2022-07-12T09:53:30;5.20;;;1.50;;
35691;SDS011;26978;44.830;-0.674;2022-07-12T09:55:58;13.05;;;1.27;;
35691;SDS011;26978;44.830;-0.674;2022-07-12T09:58:31;10.68;;;1.70;;
35691;SDS011;26978;44.830;-0.674;2022-07-12T10:04:26;4.00;;;1.23;;
35691;SDS011;26978;44.830;-0.674;2022-07-12T10:07:19;7.93;;;1.65;;
35691;SDS011;26978;44.830;-0.674;2022-07-12T10:09:46;6.03;;;1.00;;
35691;SDS011;26978;44.830;-0.674;2022-07-12T10:12:16;5.50;;;1.13;;
35691;SDS011;26978;44.830;-0.674;2022-07-12T10:14:44;3.40;;;1.75;;
35691;SDS011;26978;44.830;-0.674;2022-07-12T10:17:10;12.63;;;1.63;;
35691;SDS011;26978;44.830;-0.674;2022-07-12T10:19:38;4.78;;;1.60;;
35691;SDS011;26978;44.830;-0.674;2022-07-12T10:22:17;7.85;;;1.42;;
35691;SDS011;26978;44.830;-0.674;2022-07-12T10:24:47;8.80;;;1.33;;
35691;SDS011;26978;44.830;-0.674;2022-07-12T10:29:49;8.13;;;1.13;;
35691;SDS011;26978;44.830;-0.674;2022-07-12T10:32:24;4.90;;;0.93;;
35691;SDS011;26978;44.830;-0.674;2022-07-12T10:34:59;5.78;;;1.08;;
35691;SDS011;26978;44.830;-0.674;2022-07-12T10:37:30;5.35;;;1.30;;
35691;SDS011;26978;44.830;-0.674;2022-07-12T10:40:10;5.15;;;1.20;;
35691;SDS011;26978;44.830;-0.674;2022-07-12T10:43:17;5.15;;;1.00;;
35691;SDS011;26978;44.830;-0.674;2022-07-12T10:45:45;5.18;;;1.10;;
35691;SDS011;26978;44.830;-0.674;2022-07-12T10:58:39;4.43;;;0.95;;
35691;SDS011;26978;44.830;-0.674;2022-07-12T11:01:11;5.13;;;1.13;;
35691;SDS011;26978;44.830;-0.674;2022-07-12T11:03:42;3.83;;;1.05;;
35691;SDS011;26978;44.830;-0.674;2022-07-12T11:06:17;9.10;;;1.27;;
35691;SDS011;26978;44.830;-0.674;2022-07-12T11:08:49;5.80;;;1.00;;
35691;SDS011;26978;44.830;-0.674;2022-07-12T11:11:22;5.43;;;1.30;;
35691;SDS011;26978;44.830;-0.674;2022-07-12T11:13:50;4.55;;;1.25;;
35691;SDS011;26978;44.830;-0.674;2022-07-12T11:16:16;1.85;;;0.80;;
35691;SDS011;26978;44.830;-0.674;2022-07-12T11:18:42;6.78;;;1.30;;
35691;SDS011;26978;44.830;-0.674;2022-07-12T11:21:08;4.45;;;1.10;;
35691;SDS011;26978;44.830;-0.674;2022-07-12T11:37:06;3.45;;;1.00;;
35691;SDS011;26978;44.830;-0.674;2022-07-12T11:42:08;7.68;;;1.10;;
35691;SDS011;26978;44.830;-0.674;2022-07-12T11:44:47;5.32;;;0.90;;
35691;SDS011;26978;44.830;-0.674;2022-07-12T11:47:14;3.45;;;0.90;;
35691;SDS011;26978;44.830;-0.674;2022-07-12T11:49:46;2.60;;;1.02;;
35691;SDS011;26978;44.830;-0.674;2022-07-12T11:54:41;1.92;;;0.80;;
35691;SDS011;26978;44.830;-0.674;2022-07-12T11:57:08;1.73;;;1.00;;
35691;SDS011;26978;44.830;-0.674;2022-07-12T11:59:34;4.05;;;0.80;;
35691;SDS011;26978;44.830;-0.674;2022-07-12T12:02:07;0.98;;;0.70;;
35691;SDS011;26978;44.830;-0.674;2022-07-12T12:07:13;1.33;;;0.57;;
35691;SDS011;26978;44.830;-0.674;2022-07-12T12:09:58;6.78;;;0.85;;
35691;SDS011;26978;44.830;-0.674;2022-07-12T12:12:25;4.28;;;0.70;;
35691;SDS011;26978;44.830;-0.674;2022-07-12T12:14:51;5.40;;;1.02;;
35691;SDS011;26978;44.830;-0.674;2022-07-12T12:17:16;2.88;;;0.90;;
35691;SDS011;26978;44.830;-0.674;2022-07-12T12:19:42;4.40;;;0.55;;
35691;SDS011;26978;44.830;-0.674;2022-07-12T12:24:58;4.32;;;0.80;;
35691;SDS011;26978;44.830;-0.674;2022-07-12T12:27:24;3.88;;;0.85;;
35691;SDS011;26978;44.830;-0.674;2022-07-12T12:29:50;0.75;;;0.50;;
35691;SDS011;26978;44.830;-0.674;2022-07-12T12:32:17;2.90;;;0.80;;
35691;SDS011;26978;44.830;-0.674;2022-07-12T12:35:04;6.85;;;0.70;;
35691;SDS011;26978;44.830;-0.674;2022-07-12T12:37:32;1.38;;;0.55;;
35691;SDS011;26978;44.830;-0.674;2022-07-12T12:39:58;2.70;;;0.47;;
35691;SDS011;26978;44.830;-0.674;2022-07-12T12:42:24;4.50;;;0.60;;
35691;SDS011;26978;44.830;-0.674;2022-07-12T12:44:50;1.23;;;0.50;;
35691;SDS011;26978;44.830;-0.674;2022-07-12T12:47:16;3.35;;;0.38;;
35691;SDS011;26978;44.830;-0.674;2022-07-12T12:49:58;3.72;;;0.40;;
35691;SDS011;26978;44.830;-0.674;2022-07-12T12:52:28;4.03;;;0.50;;
35691;SDS011;26978;44.830;-0.674;2022-07-12T12:54:55;7.82;;;0.70;;
35691;SDS011;26978;44.830;-0.674;2022-07-12T12:57:21;2.08;;;0.50;;
35691;SDS011;26978;44.830;-0.674;2022-07-12T12:59:49;0.70;;;0.52;;
35691;SDS011;26978;44.830;-0.674;2022-07-12T13:02:15;2.35;;;0.40;;
35691;SDS011;26978;44.830;-0.674;2022-07-12T13:04:41;3.45;;;0.68;;
35691;SDS011;26978;44.830;-0.674;2022-07-12T13:07:06;2.65;;;0.60;;
35691;SDS011;26978;44.830;-0.674;2022-07-12T13:09:32;2.58;;;0.65;;
35691;SDS011;26978;44.830;-0.674;2022-07-12T13:11:58;2.20;;;0.60;;
35691;SDS011;26978;44.830;-0.674;2022-07-12T13:14:25;5.85;;;0.50;;
35691;SDS011;26978;44.830;-0.674;2022-07-12T13:16:51;6.32;;;0.55;;
35691;SDS011;26978;44.830;-0.674;2022-07-12T13:19:17;1.80;;;0.40;;
35691;SDS011;26978;44.830;-0.674;2022-07-12T13:21:44;2.45;;;0.40;;
35691;SDS011;26978;44.830;-0.674;2022-07-12T13:24:10;2.78;;;0.30;;
35691;SDS011;26978;44.830;-0.674;2022-07-12T13:26:35;2.42;;;0.40;;
35691;SDS011;26978;44.830;-0.674;2022-07-12T13:29:02;1.27;;;0.35;;
35691;SDS011;26978;44.830;-0.674;2022-07-12T13:31:28;0.47;;;0.43;;
35691;SDS011;26978;44.830;-0.674;2022-07-12T13:33:54;0.70;;;0.40;;
35691;SDS011;26978;44.830;-0.674;2022-07-12T13:36:20;3.60;;;0.30;;
35691;SDS011;26978;44.830;-0.674;2022-07-12T13:38:46;2.35;;;0.25;;
35691;SDS011;26978;44.830;-0.674;2022-07-12T13:41:12;3.50;;;0.32;;
35691;SDS011;26978;44.830;-0.674;2022-07-12T13:43:37;2.50;;;0.40;;
35691;SDS011;26978;44.830;-0.674;2022-07-12T13:46:03;1.25;;;0.30;;
35691;SDS011;26978;44.830;-0.674;2022-07-12T13:48:30;2.17;;;0.40;;
35691;SDS011;26978;44.830;-0.674;2022-07-12T13:50:56;2.55;;;0.80;;
35691;SDS011;26978;44.830;-0.674;2022-07-12T13:53:22;0.55;;;0.50;;
35691;SDS011;26978;44.830;-0.674;2022-07-12T13:55:47;0.95;;;0.40;;
35691;SDS011;26978;44.830;-0.674;2022-07-12T13:58:13;0.38;;;0.30;;
35691;SDS011;26978;44.830;-0.674;2022-07-12T14:00:39;3.63;;;0.55;;
35691;SDS011;26978;44.830;-0.674;2022-07-12T14:03:05;2.85;;;0.88;;
35691;SDS011;26978;44.830;-0.674;2022-07-12T14:05:31;1.98;;;0.40;;
35691;SDS011;26978;44.830;-0.674;2022-07-12T14:07:57;4.22;;;0.40;;
35691;SDS011;26978;44.830;-0.674;2022-07-12T14:10:23;2.50;;;0.50;;
35691;SDS011;26978;44.830;-0.674;2022-07-12T14:12:48;0.50;;;0.35;;
35691;SDS011;26978;44.830;-0.674;2022-07-12T14:15:14;0.65;;;0.20;;
35691;SDS011;26978;44.830;-0.674;2022-07-12T14:17:45;2.13;;;0.40;;
35691;SDS011;26978;44.830;-0.674;2022-07-12T14:20:18;1.13;;;0.30;;
35691;SDS011;26978;44.830;-0.674;2022-07-12T14:22:45;2.95;;;0.32;;
35691;SDS011;26978;44.830;-0.674;2022-07-12T14:25:11;2.47;;;0.30;;
35691;SDS011;26978;44.830;-0.674;2022-07-12T14:27:37;0.60;;;0.28;;
35691;SDS011;26978;44.830;-0.674;2022-07-12T14:30:04;3.38;;;0.30;;
35691;SDS011;26978;44.830;-0.674;2022-07-12T14:32:32;1.92;;;0.35;;
35691;SDS011;26978;44.830;-0.674;2022-07-12T14:34:58;0.43;;;0.30;;
35691;SDS011;26978;44.830;-0.674;2022-07-12T14:37:23;2.47;;;0.40;;
35691;SDS011;26978;44.830;-0.674;2022-07-12T14:39:49;2.88;;;0.30;;
35691;SDS011;26978;44.830;-0.674;2022-07-12T14:42:15;1.85;;;0.30;;
35691;SDS011;26978;44.830;-0.674;2022-07-12T14:44:41;0.47;;;0.10;;
35691;SDS011;26978;44.830;-0.674;2022-07-12T14:47:07;1.63;;;0.30;;
35691;SDS011;26978;44.830;-0.674;2022-07-12T14:49:33;2.58;;;0.30;;
35691;SDS011;26978;44.830;-0.674;2022-07-12T14:51:59;0.20;;;0.20;;
35691;SDS011;26978;44.830;-0.674;2022-07-12T14:54:25;0.43;;;0.20;;
35691;SDS011;26978;44.830;-0.674;2022-07-12T14:56:51;0.52;;;0.30;;
35691;SDS011;26978;44.830;-0.674;2022-07-12T14:59:16;0.38;;;0.20;;
35691;SDS011;26978;44.830;-0.674;2022-07-12T15:01:42;2.22;;;0.30;;
35691;SDS011;26978;44.830;-0.674;2022-07-12T15:04:08;0.30;;;0.30;;
35691;SDS011;26978;44.830;-0.674;2022-07-12T15:06:34;0.68;;;0.30;;
35691;SDS011;26978;44.830;-0.674;2022-07-12T15:08:59;0.30;;;0.30;;
35691;SDS011;26978;44.830;-0.674;2022-07-12T15:11:25;0.52;;;0.20;;
35691;SDS011;26978;44.830;-0.674;2022-07-12T15:13:51;0.50;;;0.30;;
35691;SDS011;26978;44.830;-0.674;2022-07-12T15:16:17;1.45;;;0.20;;
35691;SDS011;26978;44.830;-0.674;2022-07-12T15:18:43;0.38;;;0.20;;
35691;SDS011;26978;44.830;-0.674;2022-07-12T15:21:09;2.05;;;0.30;;
35691;SDS011;26978;44.830;-0.674;2022-07-12T15:23:35;1.67;;;0.30;;